This is the latest recevied weather packets stored in our database for station/object IN3MWE-10. If no packets are shown the sender has not sent any weather packets the latest 10 day(s).
| Time | Temp. | Humidity | Pressure | Rain* | Wind** | Luminosity | Snow |
|---|---|---|---|---|---|---|---|
| 1787610924 | 22.22° C | 81% | 978.4 hPa | - | - | - | - |
| 1787610024 | 22.22° C | 83% | 978.6 hPa | - | - | - | - |
| 1787609123 | 22.78° C | 79% | 978.6 hPa | - | - | - | - |
| 1787608223 | 22.78° C | 77% | 978.6 hPa | - | - | - | - |
| 1787607323 | 22.78° C | 76% | 978.7 hPa | - | - | - | - |
| 1787606423 | 23.33° C | 76% | 978.9 hPa | - | - | - | - |
| 1787605523 | 23.33° C | 77% | 978.5 hPa | - | - | - | - |
| 1787604623 | 23.33° C | 76% | 978.5 hPa | - | - | - | - |
| 1787603723 | 23.89° C | 75% | 978.8 hPa | - | - | - | - |
| 1787602822 | 23.89° C | 74% | 978.8 hPa | - | - | - | - |
| 1787601922 | 23.89° C | 73% | 978.8 hPa | - | - | - | - |
| 1787601022 | 23.89° C | 73% | 978.9 hPa | - | - | - | - |
| 1787600122 | 24.44° C | 72% | 978.9 hPa | - | - | - | - |
| 1787599222 | 23.89° C | 74% | 978.5 hPa | - | - | - | - |
| 1787598322 | 23.89° C | 76% | 978.2 hPa | - | - | - | - |
| 1787597422 | 24.44° C | 74% | 978.1 hPa | - | - | - | - |
| 1787596521 | 24.44° C | 73% | 978 hPa | - | - | - | - |
| 1787595621 | 25° C | 71% | 977.8 hPa | - | - | - | - |
| 1787594721 | 25.56° C | 70% | 977.7 hPa | - | - | - | - |
| 1787593821 | 25.56° C | 68% | 977.8 hPa | - | - | - | - |
| 1787592921 | 26.67° C | 61% | 977.4 hPa | - | - | - | - |
| 1787592021 | 27.78° C | 54% | 977.7 hPa | - | - | - | - |
| 1787591121 | 28.33° C | 48% | 977.6 hPa | - | - | - | - |
| 1787590220 | 28.33° C | 47% | 977.6 hPa | - | - | - | - |
| 1787589320 | 28.89° C | 43% | 977.5 hPa | - | - | - | - |
* Rain since midnight (hover to see other rain measurements)
** Current wind speed in m/s (hover to see current wind gust speed)